createdAt,value
2022-12-08T00:01:21.984Z,2.55
2022-12-08T00:03:49.921Z,2.46
2022-12-08T00:06:42.124Z,2.38
2022-12-08T00:09:23.516Z,2.36
2022-12-08T00:12:01.331Z,2.38
2022-12-08T00:14:34.265Z,2.42
2022-12-08T00:17:02.438Z,2.42
2022-12-08T00:19:30.626Z,2.47
2022-12-08T00:21:58.353Z,2.49
2022-12-08T00:24:30.578Z,2.48
2022-12-08T00:26:58.343Z,2.50
2022-12-08T00:29:26.013Z,2.47
2022-12-08T00:31:53.949Z,2.42
2022-12-08T00:34:21.868Z,2.40
2022-12-08T00:36:49.708Z,2.42
2022-12-08T00:39:17.773Z,2.44
2022-12-08T00:42:04.063Z,2.44
2022-12-08T00:44:31.924Z,2.47
2022-12-08T00:46:59.701Z,2.48
2022-12-08T00:49:27.518Z,2.52
2022-12-08T00:51:55.204Z,2.53
2022-12-08T00:54:24.196Z,2.53
2022-12-08T00:56:51.982Z,2.46
2022-12-08T00:59:19.940Z,2.43
2022-12-08T01:01:47.744Z,2.38
2022-12-08T01:04:16.775Z,2.41
2022-12-08T01:06:44.678Z,2.44
2022-12-08T01:09:12.476Z,2.43
2022-12-08T01:11:40.188Z,2.45
2022-12-08T01:14:07.916Z,2.48
2022-12-08T01:16:36.349Z,2.50
2022-12-08T01:19:04.279Z,2.51
2022-12-08T01:21:32.037Z,2.52
2022-12-08T01:24:01.137Z,2.54
2022-12-08T01:26:28.877Z,2.56
2022-12-08T01:28:56.690Z,2.56
2022-12-08T01:31:24.627Z,2.56
2022-12-08T01:33:52.494Z,2.57
2022-12-08T01:36:27.586Z,2.59
2022-12-08T01:38:55.861Z,2.59
2022-12-08T01:41:24.794Z,2.50
2022-12-08T01:43:59.853Z,2.38
2022-12-08T01:46:28.161Z,2.41
2022-12-08T01:49:06.933Z,2.41
2022-12-08T01:51:40.017Z,2.46
2022-12-08T01:54:07.828Z,2.46
2022-12-08T01:56:47.459Z,2.42
2022-12-08T01:59:15.233Z,2.45
2022-12-08T02:01:43.041Z,2.47
2022-12-08T02:04:11.072Z,2.50
2022-12-08T02:06:40.995Z,2.51
2022-12-08T02:09:08.813Z,2.51
2022-12-08T02:11:36.641Z,2.52
2022-12-08T02:14:05.315Z,2.52
2022-12-08T02:16:33.049Z,2.56
2022-12-08T02:19:31.618Z,2.58
2022-12-08T02:22:11.793Z,2.59
2022-12-08T02:24:57.575Z,2.59
2022-12-08T02:27:54.918Z,2.53
2022-12-08T02:30:47.618Z,2.48
2022-12-08T02:33:52.839Z,2.47
2022-12-08T02:36:28.089Z,2.49
2022-12-08T02:39:10.142Z,2.48
2022-12-08T02:41:57.828Z,2.44
2022-12-08T02:44:38.631Z,2.49
2022-12-08T02:47:14.770Z,2.49
2022-12-08T02:49:42.526Z,2.53
2022-12-08T02:52:13.186Z,2.56
2022-12-08T02:54:43.290Z,2.51
2022-12-08T02:57:17.032Z,2.46
2022-12-08T02:59:57.868Z,2.51
2022-12-08T03:02:34.817Z,2.56
2022-12-08T03:05:23.784Z,2.56
2022-12-08T03:07:58.695Z,2.58
2022-12-08T03:10:35.289Z,2.61
2022-12-08T03:13:33.904Z,2.63
2022-12-08T03:16:01.680Z,2.61
2022-12-08T03:18:30.167Z,2.49
2022-12-08T03:20:57.912Z,2.47
2022-12-08T03:23:25.628Z,2.50
2022-12-08T03:26:16.382Z,2.51
2022-12-08T03:28:44.091Z,2.51
2022-12-08T03:31:13.445Z,2.54
2022-12-08T03:33:42.386Z,2.55
2022-12-08T03:36:10.506Z,2.50
2022-12-08T03:38:39.873Z,2.49
2022-12-08T03:41:19.559Z,2.50
2022-12-08T03:43:54.505Z,2.53
2022-12-08T03:48:50.694Z,2.48
2022-12-08T03:51:18.573Z,2.38
2022-12-08T03:53:46.400Z,2.34
2022-12-08T03:56:23.545Z,2.36
2022-12-08T03:58:51.218Z,2.33
2022-12-08T04:01:19.153Z,2.35
2022-12-08T04:03:46.894Z,2.38
2022-12-08T04:06:14.689Z,2.38
2022-12-08T04:08:42.538Z,2.43
2022-12-08T04:11:10.344Z,2.45
2022-12-08T04:13:38.765Z,2.50
2022-12-08T04:16:07.208Z,2.53
2022-12-08T04:18:35.706Z,2.57
2022-12-08T04:21:03.430Z,2.58
2022-12-08T04:23:31.209Z,2.62
2022-12-08T04:25:58.890Z,2.65
2022-12-08T04:28:26.669Z,2.64
2022-12-08T04:30:54.369Z,2.63
2022-12-08T04:33:22.300Z,2.65
2022-12-08T04:35:50.066Z,2.65
2022-12-08T04:38:18.143Z,2.67
2022-12-08T04:40:45.998Z,2.66
2022-12-08T04:43:13.711Z,2.64
2022-12-08T04:45:42.264Z,2.63
2022-12-08T04:48:10.111Z,2.63
2022-12-08T04:50:37.832Z,2.64
2022-12-08T04:53:05.601Z,2.61
2022-12-08T04:55:33.347Z,2.59
2022-12-08T04:58:01.098Z,2.61
2022-12-08T05:00:28.887Z,2.61
2022-12-08T05:02:56.664Z,2.58
2022-12-08T05:05:24.451Z,2.62
2022-12-08T05:07:52.265Z,2.60
2022-12-08T05:10:20.088Z,2.60
2022-12-08T05:12:47.802Z,2.59
2022-12-08T05:15:15.558Z,2.60
2022-12-08T05:17:43.383Z,2.60
2022-12-08T05:20:11.816Z,2.61
2022-12-08T05:22:39.641Z,2.64
2022-12-08T05:25:07.645Z,2.65
2022-12-08T05:27:35.447Z,2.65
2022-12-08T05:30:03.590Z,2.66
2022-12-08T05:32:31.573Z,2.66
2022-12-08T05:34:59.356Z,2.66
2022-12-08T05:37:27.264Z,2.66
2022-12-08T05:39:55.216Z,2.67
2022-12-08T05:42:24.919Z,2.69
2022-12-08T05:44:53.081Z,2.67
2022-12-08T05:47:20.775Z,2.68
2022-12-08T05:49:48.656Z,2.69
2022-12-08T05:52:18.066Z,2.68
2022-12-08T05:54:45.866Z,2.64
2022-12-08T05:57:13.750Z,2.63
2022-12-08T05:59:41.553Z,2.65
2022-12-08T06:02:09.893Z,2.64
2022-12-08T06:04:37.729Z,2.61
2022-12-08T06:07:05.504Z,2.61
2022-12-08T06:09:33.268Z,2.62
2022-12-08T06:12:01.560Z,2.61
2022-12-08T06:14:29.439Z,2.66
2022-12-08T06:16:57.374Z,2.69
2022-12-08T06:19:25.413Z,2.66
2022-12-08T06:21:53.233Z,2.66
2022-12-08T06:24:21.093Z,2.63
2022-12-08T06:26:48.924Z,2.66
2022-12-08T06:29:16.678Z,2.68
2022-12-08T06:31:44.504Z,2.65
2022-12-08T06:34:12.424Z,2.64
2022-12-08T06:36:40.245Z,2.64
2022-12-08T06:39:08.007Z,2.64
2022-12-08T06:41:55.696Z,2.64
2022-12-08T06:44:23.563Z,2.63
2022-12-08T06:46:51.249Z,2.52
2022-12-08T06:49:19.025Z,2.49
2022-12-08T06:51:46.753Z,2.41
2022-12-08T06:54:14.485Z,2.42
2022-12-08T06:56:42.424Z,2.44
2022-12-08T06:59:10.331Z,2.94
2022-12-08T07:01:38.092Z,3.08
2022-12-08T07:04:05.917Z,3.14
2022-12-08T07:06:33.796Z,3.15
2022-12-08T07:09:01.762Z,3.18
2022-12-08T07:11:29.418Z,3.10
2022-12-08T07:13:58.293Z,2.96
2022-12-08T07:16:26.173Z,2.83
2022-12-08T07:18:53.984Z,2.78
2022-12-08T07:21:21.747Z,2.71
2022-12-08T07:23:56.060Z,2.70
2022-12-08T07:26:25.566Z,2.68
2022-12-08T07:28:53.339Z,2.73
2022-12-08T07:31:22.845Z,2.79
2022-12-08T07:33:51.464Z,2.81
2022-12-08T07:36:19.263Z,2.81
2022-12-08T07:38:47.062Z,2.68
2022-12-08T07:41:19.217Z,2.66
2022-12-08T07:43:47.011Z,2.69
2022-12-08T07:46:20.303Z,2.73
2022-12-08T07:48:48.242Z,2.70
2022-12-08T07:51:16.504Z,2.69
2022-12-08T07:53:49.901Z,2.55
2022-12-08T07:56:21.190Z,2.50
2022-12-08T07:58:48.910Z,2.50
2022-12-08T08:01:24.526Z,2.50
2022-12-08T08:03:52.451Z,2.43
2022-12-08T08:06:20.333Z,2.42
2022-12-08T08:08:48.220Z,2.44
2022-12-08T08:11:20.919Z,2.50
2022-12-08T08:13:49.824Z,2.59
2022-12-08T08:16:17.880Z,2.58
2022-12-08T08:18:48.057Z,2.56
2022-12-08T08:21:43.965Z,2.56
2022-12-08T08:24:03.810Z,2.60
2022-12-08T08:26:31.533Z,2.66
2022-12-08T08:28:59.326Z,2.69
2022-12-08T08:31:28.079Z,2.62
2022-12-08T08:33:56.862Z,2.63
2022-12-08T08:36:24.677Z,2.70
2022-12-08T08:38:52.504Z,2.76
2022-12-08T08:41:20.370Z,2.84
2022-12-08T08:43:48.166Z,2.90
2022-12-08T08:46:16.004Z,2.91
2022-12-08T08:48:43.949Z,2.94
2022-12-08T08:51:13.174Z,2.92
2022-12-08T08:53:41.071Z,2.92
2022-12-08T08:56:12.812Z,2.96
2022-12-08T08:58:40.743Z,2.96
2022-12-08T09:01:08.538Z,3.03
2022-12-08T09:03:36.353Z,3.05
2022-12-08T09:06:04.218Z,3.08
2022-12-08T09:08:32.419Z,3.15
2022-12-08T09:11:00.146Z,3.22
2022-12-08T09:13:27.859Z,3.29
2022-12-08T09:15:55.670Z,3.33
2022-12-08T09:18:23.446Z,3.35
2022-12-08T09:20:51.223Z,3.40
2022-12-08T09:23:18.984Z,3.46
2022-12-08T09:25:46.844Z,3.50
2022-12-08T09:28:15.452Z,3.55
2022-12-08T09:30:43.237Z,3.56
2022-12-08T09:33:10.988Z,3.57
2022-12-08T09:35:38.883Z,3.61
2022-12-08T09:38:06.821Z,3.63
2022-12-08T09:40:36.347Z,3.71
2022-12-08T09:43:23.712Z,3.74
2022-12-08T09:45:52.884Z,3.80
2022-12-08T09:48:21.157Z,3.84
2022-12-08T09:50:54.810Z,3.87
2022-12-08T09:53:23.442Z,3.92
2022-12-08T09:55:53.465Z,3.88
2022-12-08T09:58:30.647Z,3.89
2022-12-08T10:00:58.441Z,3.93
2022-12-08T10:03:29.150Z,3.97
2022-12-08T10:06:21.257Z,4.01
2022-12-08T10:09:11.171Z,4.07
2022-12-08T10:11:45.173Z,4.13
2022-12-08T10:14:24.958Z,4.18
2022-12-08T10:16:53.783Z,4.23
2022-12-08T10:19:23.254Z,4.28
2022-12-08T10:21:51.258Z,4.31
2022-12-08T10:24:32.668Z,4.31
2022-12-08T10:27:00.474Z,4.36
2022-12-08T10:29:28.294Z,4.33
2022-12-08T10:31:58.360Z,4.38
2022-12-08T10:34:27.302Z,4.42
2022-12-08T10:36:59.262Z,4.44
2022-12-08T10:39:40.985Z,4.46
2022-12-08T10:42:21.947Z,4.48
2022-12-08T10:44:58.746Z,4.51
2022-12-08T10:47:30.031Z,4.53
2022-12-08T10:50:09.177Z,4.55
2022-12-08T10:52:41.019Z,4.60
2022-12-08T10:55:18.451Z,4.61
2022-12-08T10:57:46.487Z,4.61
2022-12-08T11:00:22.726Z,4.67
2022-12-08T11:03:04.553Z,4.68
2022-12-08T11:05:34.329Z,4.68
2022-12-08T11:08:02.367Z,4.77
2022-12-08T11:10:39.542Z,4.70
2022-12-08T11:13:08.414Z,4.74
2022-12-08T11:15:39.040Z,4.72
2022-12-08T11:18:19.978Z,4.75
2022-12-08T11:20:47.709Z,4.77
2022-12-08T11:23:26.262Z,4.71
2022-12-08T11:25:54.028Z,4.75
2022-12-08T11:28:24.556Z,4.77
2022-12-08T11:31:05.774Z,4.78
2022-12-08T11:33:33.704Z,4.77
2022-12-08T11:36:08.731Z,4.78
2022-12-08T11:38:36.598Z,4.82
2022-12-08T11:41:15.765Z,4.85
2022-12-08T11:43:49.435Z,4.84
2022-12-08T11:46:22.856Z,4.84
2022-12-08T11:49:06.830Z,4.86
2022-12-08T11:51:40.756Z,4.94
2022-12-08T11:54:33.441Z,4.95
2022-12-08T11:57:02.717Z,4.95
2022-12-08T11:59:34.508Z,4.91
2022-12-08T12:02:03.153Z,4.88
2022-12-08T12:04:38.444Z,4.89
2022-12-08T12:07:09.203Z,4.89
2022-12-08T12:10:02.391Z,4.92
2022-12-08T12:12:39.260Z,4.93
2022-12-08T12:15:43.104Z,4.95
2022-12-08T12:18:27.442Z,4.91
2022-12-08T12:21:23.776Z,4.93
2022-12-08T12:24:08.167Z,4.95
2022-12-08T12:26:38.747Z,4.95
2022-12-08T12:29:17.474Z,4.93
2022-12-08T12:31:49.438Z,4.90
2022-12-08T12:34:21.838Z,4.89
2022-12-08T12:37:00.458Z,4.88
2022-12-08T12:39:33.645Z,4.87
2022-12-08T12:42:05.195Z,4.88
2022-12-08T12:44:35.915Z,4.90
2022-12-08T12:47:05.158Z,4.87
2022-12-08T12:49:42.017Z,4.93
2022-12-08T12:52:22.233Z,4.93
2022-12-08T12:54:52.982Z,4.92
2022-12-08T12:57:20.660Z,4.93
2022-12-08T12:59:55.784Z,4.92
2022-12-08T13:02:34.403Z,4.94
2022-12-08T13:05:16.682Z,4.96
2022-12-08T13:07:57.643Z,4.98
2022-12-08T13:10:34.247Z,4.96
2022-12-08T13:13:11.040Z,4.99
2022-12-08T13:15:39.509Z,4.99
2022-12-08T13:18:36.450Z,4.97
2022-12-08T13:21:16.290Z,4.94
2022-12-08T13:24:04.008Z,4.95
2022-12-08T13:26:31.763Z,4.96
2022-12-08T13:29:02.622Z,4.95
2022-12-08T13:31:36.400Z,4.90
2022-12-08T13:34:22.473Z,4.88
2022-12-08T13:37:12.140Z,4.88
2022-12-08T13:40:04.825Z,4.88
2022-12-08T13:42:41.627Z,4.90
2022-12-08T13:45:33.426Z,4.89
2022-12-08T13:53:10.303Z,4.87
2022-12-08T13:57:06.718Z,4.83
2022-12-08T13:59:35.312Z,4.82
2022-12-08T14:02:25.494Z,4.82
2022-12-08T14:07:41.705Z,4.79
2022-12-08T14:10:17.937Z,4.76
2022-12-08T14:12:47.422Z,4.72
2022-12-08T14:15:16.501Z,4.72
2022-12-08T14:17:52.465Z,4.73
2022-12-08T14:20:46.534Z,4.69
2022-12-08T14:23:21.405Z,4.69
2022-12-08T14:25:49.172Z,4.70
2022-12-08T14:28:17.013Z,4.70
2022-12-08T14:30:44.792Z,4.69
2022-12-08T14:33:18.005Z,4.73
2022-12-08T14:35:50.178Z,4.70
2022-12-08T14:38:19.195Z,4.67
2022-12-08T14:40:47.669Z,4.66
2022-12-08T14:43:20.206Z,4.64
2022-12-08T14:45:51.962Z,4.55
2022-12-08T14:48:34.706Z,4.54
2022-12-08T14:51:05.410Z,4.51
2022-12-08T14:54:01.764Z,4.49
2022-12-08T14:56:52.894Z,4.50
2022-12-08T14:59:26.744Z,4.47
2022-12-08T15:02:09.996Z,4.46
2022-12-08T15:04:45.296Z,4.44
2022-12-08T15:07:18.391Z,4.44
2022-12-08T15:09:51.207Z,4.38
2022-12-08T15:12:33.022Z,4.40
2022-12-08T15:15:03.529Z,4.40
2022-12-08T15:17:34.782Z,4.34
2022-12-08T15:20:03.264Z,4.34
2022-12-08T15:22:31.286Z,4.32
2022-12-08T15:24:59.055Z,4.30
2022-12-08T15:27:26.842Z,4.28
2022-12-08T15:29:54.803Z,4.27
2022-12-08T15:32:23.581Z,4.28
2022-12-08T15:34:51.760Z,4.26
2022-12-08T15:37:27.442Z,4.20
2022-12-08T15:39:55.304Z,4.11
2022-12-08T15:42:23.056Z,4.07
2022-12-08T15:44:50.872Z,4.03
2022-12-08T15:47:20.485Z,4.02
2022-12-08T15:49:48.678Z,4.03
2022-12-08T15:52:18.735Z,4.05
2022-12-08T15:54:46.448Z,4.03
2022-12-08T16:00:50.991Z,3.90
2022-12-08T16:04:08.915Z,3.88
2022-12-08T16:07:04.664Z,3.83
2022-12-08T16:09:12.390Z,3.87
2022-12-08T16:12:09.038Z,3.88
2022-12-08T16:17:25.306Z,3.89
2022-12-08T16:19:53.148Z,3.89
2022-12-08T16:25:19.408Z,3.89
2022-12-08T16:28:01.266Z,3.86
2022-12-08T16:30:33.539Z,3.89
2022-12-08T16:33:01.330Z,3.90
2022-12-08T16:35:29.239Z,3.92
2022-12-08T16:37:57.061Z,3.90
2022-12-08T16:40:24.866Z,3.88
2022-12-08T16:42:52.693Z,3.89
2022-12-08T16:45:30.609Z,3.87
2022-12-08T16:48:01.937Z,3.85
2022-12-08T16:50:31.645Z,3.84
2022-12-08T16:53:03.953Z,3.82
2022-12-08T16:55:31.925Z,3.81
2022-12-08T16:57:59.872Z,3.78
2022-12-08T17:00:28.511Z,3.73
2022-12-08T17:02:56.504Z,3.64
2022-12-08T17:05:25.577Z,3.58
2022-12-08T17:07:53.748Z,3.53
2022-12-08T17:10:24.190Z,3.45
2022-12-08T17:12:52.187Z,3.37
2022-12-08T17:15:21.860Z,3.34
2022-12-08T17:17:49.836Z,3.32
2022-12-08T17:20:25.212Z,3.28
2022-12-08T17:22:59.567Z,3.23
2022-12-08T17:25:27.859Z,3.20
2022-12-08T17:27:55.854Z,3.17
2022-12-08T17:30:23.754Z,3.12
2022-12-08T17:32:53.871Z,3.06
2022-12-08T17:35:21.711Z,3.02
2022-12-08T17:37:49.787Z,2.96
2022-12-08T17:40:17.485Z,2.91
2022-12-08T17:42:45.276Z,2.87
2022-12-08T17:45:13.092Z,2.85
2022-12-08T17:47:40.865Z,2.81
2022-12-08T17:50:09.470Z,2.76
2022-12-08T17:52:37.404Z,2.71
2022-12-08T17:55:05.474Z,2.66
2022-12-08T17:57:33.268Z,2.63
2022-12-08T18:00:01.072Z,2.60
2022-12-08T18:02:30.047Z,2.57
2022-12-08T18:04:58.105Z,2.48
2022-12-08T18:07:25.951Z,2.40
2022-12-08T18:09:53.884Z,2.35
2022-12-08T18:12:23.777Z,2.32
2022-12-08T18:14:52.845Z,2.30
2022-12-08T18:17:21.671Z,2.29
2022-12-08T18:19:49.538Z,2.25
2022-12-08T18:22:17.295Z,2.25
2022-12-08T18:24:45.449Z,2.20
2022-12-08T18:27:13.266Z,2.12
2022-12-08T18:29:41.287Z,2.06
2022-12-08T18:32:09.679Z,2.02
2022-12-08T18:34:37.469Z,1.99
2022-12-08T18:37:05.512Z,1.92
2022-12-08T18:39:33.763Z,1.87
2022-12-08T18:42:03.684Z,1.82
2022-12-08T18:44:31.479Z,1.83
2022-12-08T18:46:59.309Z,1.85
2022-12-08T18:49:27.716Z,1.83
2022-12-08T18:51:55.577Z,1.83
2022-12-08T18:54:37.006Z,1.84
2022-12-08T18:57:11.782Z,1.84
2022-12-08T18:59:39.684Z,1.78
2022-12-08T19:02:07.545Z,1.76
2022-12-08T19:04:38.943Z,1.76
2022-12-08T19:07:06.981Z,1.80
2022-12-08T19:09:34.761Z,1.78
2022-12-08T19:12:02.552Z,1.77
2022-12-08T19:14:31.768Z,1.72
2022-12-08T19:16:59.665Z,1.74
2022-12-08T19:19:27.900Z,1.75
2022-12-08T19:21:55.834Z,1.76
2022-12-08T19:24:24.154Z,1.75
2022-12-08T19:26:52.012Z,1.77
2022-12-08T19:29:19.784Z,1.76
2022-12-08T19:31:47.686Z,1.75
2022-12-08T19:34:15.700Z,1.71
2022-12-08T19:36:44.100Z,1.71
2022-12-08T19:39:36.101Z,1.71
2022-12-08T19:42:22.878Z,1.70
2022-12-08T19:44:56.552Z,1.68
2022-12-08T19:47:28.232Z,1.68
2022-12-08T19:50:16.385Z,1.67
2022-12-08T19:52:44.464Z,1.65
2022-12-08T19:55:12.606Z,1.65
2022-12-08T19:57:40.456Z,1.61
2022-12-08T20:00:09.378Z,1.63
2022-12-08T20:02:37.928Z,1.61
2022-12-08T20:05:06.813Z,1.57
2022-12-08T20:07:34.753Z,1.57
2022-12-08T20:10:05.164Z,1.56
2022-12-08T20:12:33.212Z,1.55
2022-12-08T20:15:01.093Z,1.53
2022-12-08T20:17:28.929Z,1.56
2022-12-08T20:19:56.781Z,1.56
2022-12-08T20:22:24.590Z,1.57
2022-12-08T20:24:58.410Z,1.58
2022-12-08T20:27:30.134Z,1.61
2022-12-08T20:29:58.046Z,1.59
2022-12-08T20:32:25.791Z,1.60
2022-12-08T20:34:53.690Z,1.51
2022-12-08T20:37:21.520Z,1.48
2022-12-08T20:39:49.860Z,1.54
2022-12-08T20:42:17.724Z,1.57
2022-12-08T20:44:45.539Z,1.61
2022-12-08T20:47:14.149Z,1.67
2022-12-08T20:49:46.613Z,1.73
2022-12-08T20:52:15.306Z,1.76
2022-12-08T20:54:43.113Z,1.74
2022-12-08T20:57:11.089Z,1.71
2022-12-08T20:59:38.949Z,1.67
2022-12-08T21:02:06.910Z,1.67
2022-12-08T21:04:35.151Z,1.66
2022-12-08T21:07:03.093Z,1.68
2022-12-08T21:09:31.048Z,1.75
2022-12-08T21:11:58.952Z,1.79
2022-12-08T21:14:26.984Z,1.75
2022-12-08T21:16:55.691Z,1.79
2022-12-08T21:19:26.362Z,1.78
2022-12-08T21:21:54.192Z,1.79
2022-12-08T21:24:21.952Z,1.80
2022-12-08T21:26:50.780Z,1.83
2022-12-08T21:29:18.564Z,1.88
2022-12-08T21:31:46.574Z,1.92
2022-12-08T21:34:14.384Z,1.93
2022-12-08T21:36:42.443Z,1.93
2022-12-08T21:39:14.019Z,1.92
2022-12-08T21:42:00.689Z,1.89
2022-12-08T21:44:28.729Z,1.87
2022-12-08T21:46:56.681Z,1.83
2022-12-08T21:49:24.730Z,1.81
2022-12-08T21:51:52.892Z,1.84
2022-12-08T21:54:20.853Z,1.90
2022-12-08T21:56:49.380Z,1.92
2022-12-08T21:59:18.144Z,1.93
2022-12-08T22:01:46.301Z,1.95
2022-12-08T22:04:19.440Z,1.94
2022-12-08T22:06:47.424Z,1.93
2022-12-08T22:09:16.432Z,1.97
2022-12-08T22:11:44.853Z,2.01
2022-12-08T22:14:15.245Z,2.03
2022-12-08T22:16:44.349Z,2.02
2022-12-08T22:19:13.232Z,1.98
2022-12-08T22:21:41.593Z,1.98
2022-12-08T22:24:09.788Z,1.94
2022-12-08T22:26:40.175Z,1.86
2022-12-08T22:29:08.073Z,1.80
2022-12-08T22:31:40.529Z,1.78
2022-12-08T22:34:08.393Z,1.74
2022-12-08T22:36:36.373Z,1.71
2022-12-08T22:39:04.750Z,1.71
2022-12-08T22:41:32.646Z,1.72
2022-12-08T22:44:00.432Z,1.76
2022-12-08T22:46:28.230Z,1.78
2022-12-08T22:48:56.214Z,1.80
2022-12-08T22:51:24.021Z,1.83
2022-12-08T22:53:51.984Z,1.91
2022-12-08T22:56:20.344Z,1.95
2022-12-08T22:58:48.384Z,1.98
2022-12-08T23:01:24.103Z,2.00
2022-12-08T23:03:52.132Z,2.04
2022-12-08T23:06:20.370Z,2.02
2022-12-08T23:08:48.233Z,2.03
2022-12-08T23:11:16.207Z,2.06
2022-12-08T23:13:44.118Z,1.99
2022-12-08T23:16:12.467Z,1.99
2022-12-08T23:18:44.921Z,1.97
2022-12-08T23:21:15.233Z,1.97
2022-12-08T23:23:43.171Z,1.97
2022-12-08T23:26:30.388Z,1.96
2022-12-08T23:28:58.478Z,1.93
2022-12-08T23:31:26.801Z,1.93
2022-12-08T23:33:54.817Z,1.98
2022-12-08T23:36:23.190Z,1.99
2022-12-08T23:38:50.905Z,2.02
2022-12-08T23:41:23.469Z,1.98
2022-12-08T23:43:51.994Z,2.01
2022-12-08T23:46:21.414Z,2.00
2022-12-08T23:48:49.731Z,2.03
2022-12-08T23:51:17.694Z,2.06
2022-12-08T23:53:46.842Z,2.10
2022-12-08T23:56:15.976Z,2.10
2022-12-08T23:58:44.200Z,2.12
